createdAt,value
2018-12-19T00:03:40.691Z,-2.19
2018-12-19T00:06:44.001Z,-2.34
2018-12-19T00:09:47.422Z,-2.14
2018-12-19T00:12:50.796Z,-2.40
2018-12-19T00:15:54.207Z,-2.54
2018-12-19T00:18:57.607Z,-2.67
2018-12-19T00:22:00.945Z,-2.71
2018-12-19T00:25:05.017Z,-2.64
2018-12-19T00:28:08.341Z,-2.75
2018-12-19T00:31:11.716Z,-2.71
2018-12-19T00:34:15.033Z,-2.74
2018-12-19T00:37:18.413Z,-2.71
2018-12-19T00:40:21.725Z,-2.67
2018-12-19T00:43:25.053Z,-2.58
2018-12-19T00:46:28.370Z,-2.56
2018-12-19T00:49:31.693Z,-2.51
2018-12-19T00:52:35.049Z,-2.44
2018-12-19T00:55:38.369Z,-2.44
2018-12-19T00:58:41.718Z,-2.38
2018-12-19T01:01:45.029Z,-2.32
2018-12-19T01:04:48.415Z,-2.39
2018-12-19T01:07:51.829Z,-2.40
2018-12-19T01:10:55.137Z,-2.41
2018-12-19T01:13:58.453Z,-2.32
2018-12-19T01:17:01.828Z,-2.46
2018-12-19T01:20:05.997Z,-2.44
2018-12-19T01:23:09.345Z,-2.38
2018-12-19T01:26:12.666Z,-2.21
2018-12-19T01:29:15.985Z,-2.48
2018-12-19T01:32:19.328Z,-2.51
2018-12-19T01:35:22.690Z,-2.31
2018-12-19T01:38:26.040Z,-2.54
2018-12-19T01:41:29.356Z,-2.66
2018-12-19T01:44:32.794Z,-2.30
2018-12-19T01:47:36.133Z,-2.52
2018-12-19T01:50:39.452Z,-2.63
2018-12-19T01:53:42.844Z,-2.57
2018-12-19T01:56:46.158Z,-2.61
2018-12-19T01:59:49.481Z,-2.67
2018-12-19T02:06:09.720Z,-2.53
2018-12-19T02:09:13.110Z,-2.55
2018-12-19T02:12:16.420Z,-2.52
2018-12-19T02:15:19.757Z,-2.54
2018-12-19T02:18:23.072Z,-2.47
2018-12-19T02:21:26.386Z,-2.42
2018-12-19T02:24:29.702Z,-2.68
2018-12-19T02:27:33.012Z,-2.67
2018-12-19T02:30:36.329Z,-2.70
2018-12-19T02:33:39.689Z,-2.65
2018-12-19T02:36:43.006Z,-2.33
2018-12-19T02:39:46.325Z,-2.49
2018-12-19T02:42:49.642Z,-2.64
2018-12-19T02:45:52.974Z,-2.54
2018-12-19T02:48:56.374Z,-2.38
2018-12-19T02:51:59.681Z,-2.72
2018-12-19T02:55:03.038Z,-2.45
2018-12-19T02:58:06.352Z,-2.39
2018-12-19T03:01:10.084Z,-2.41
2018-12-19T03:04:13.413Z,-2.56
2018-12-19T03:07:16.730Z,-2.65
2018-12-19T03:10:20.085Z,-2.77
2018-12-19T03:13:23.417Z,-2.73
2018-12-19T03:16:26.773Z,-2.83
2018-12-19T03:19:30.161Z,-2.86
2018-12-19T03:22:33.514Z,-2.94
2018-12-19T03:25:36.828Z,-3.09
2018-12-19T03:28:40.260Z,-3.14
2018-12-19T03:31:44.358Z,-3.10
2018-12-19T03:34:47.760Z,-2.79
2018-12-19T03:37:51.072Z,-2.72
2018-12-19T03:40:54.558Z,-2.81
2018-12-19T03:43:57.879Z,-2.87
2018-12-19T03:47:01.225Z,-2.84
2018-12-19T03:50:04.766Z,-2.98
2018-12-19T03:53:08.082Z,-3.08
2018-12-19T03:56:11.396Z,-3.04
2018-12-19T03:59:14.716Z,-2.93
2018-12-19T04:02:18.024Z,-2.80
2018-12-19T04:05:21.365Z,-2.65
2018-12-19T04:08:24.755Z,-2.54
2018-12-19T04:11:28.120Z,-2.48
2018-12-19T04:14:31.435Z,-2.48
2018-12-19T04:17:34.781Z,-2.55
2018-12-19T04:20:38.149Z,-2.53
2018-12-19T04:23:41.458Z,-2.48
2018-12-19T04:26:44.785Z,-2.44
2018-12-19T04:29:48.542Z,-2.47
2018-12-19T04:32:52.230Z,-2.37
2018-12-19T04:35:55.822Z,-2.24
2018-12-19T04:38:59.186Z,-2.30
2018-12-19T04:42:02.501Z,-2.36
2018-12-19T04:45:06.063Z,-2.27
2018-12-19T04:48:09.401Z,-2.18
2018-12-19T04:51:12.720Z,-2.16
2018-12-19T04:54:16.039Z,-2.19
2018-12-19T04:57:19.371Z,-2.15
2018-12-19T05:00:22.803Z,-2.09
2018-12-19T05:03:26.166Z,-2.04
2018-12-19T05:06:29.506Z,-2.05
2018-12-19T05:09:33.009Z,-2.00
2018-12-19T05:12:36.302Z,-2.00
2018-12-19T05:15:39.701Z,-1.92
2018-12-19T05:18:43.079Z,-2.05
2018-12-19T05:21:46.381Z,-2.05
2018-12-19T05:24:49.701Z,-1.98
2018-12-19T05:27:53.082Z,-1.94
2018-12-19T05:30:56.397Z,-1.82
2018-12-19T05:33:59.738Z,-1.72
2018-12-19T05:37:03.115Z,-1.64
2018-12-19T05:40:07.877Z,-1.59
2018-12-19T05:43:11.213Z,-1.50
2018-12-19T05:46:14.592Z,-1.50
2018-12-19T05:49:17.998Z,-1.54
2018-12-19T05:55:40.248Z,-1.42
2018-12-19T05:58:43.659Z,-1.38
2018-12-19T06:01:47.112Z,-1.35
2018-12-19T06:04:50.445Z,-1.31
2018-12-19T06:07:53.853Z,-1.28
2018-12-19T06:10:57.167Z,-1.26
2018-12-19T06:14:00.542Z,-1.22
2018-12-19T06:17:03.863Z,-1.17
2018-12-19T06:20:07.346Z,-1.15
2018-12-19T06:23:10.750Z,-1.08
2018-12-19T06:26:14.112Z,-1.04
2018-12-19T06:29:17.440Z,-0.97
2018-12-19T06:32:20.758Z,-0.99
2018-12-19T06:35:24.141Z,-1.00
2018-12-19T06:38:27.574Z,-1.07
2018-12-19T06:41:30.881Z,-0.94
2018-12-19T06:44:34.190Z,-0.98
2018-12-19T06:47:37.539Z,-1.01
2018-12-19T06:50:40.937Z,-0.94
2018-12-19T06:53:44.272Z,-0.92
2018-12-19T06:56:47.639Z,-0.88
2018-12-19T06:59:51.025Z,-0.75
2018-12-19T07:02:54.329Z,-0.67
2018-12-19T07:05:57.726Z,-0.61
2018-12-19T07:09:01.172Z,-0.57
2018-12-19T07:12:04.637Z,-0.58
2018-12-19T07:15:08.318Z,-0.46
2018-12-19T07:18:11.621Z,-0.41
2018-12-19T07:21:15.069Z,-0.26
2018-12-19T07:24:18.416Z,-0.24
2018-12-19T07:27:21.750Z,-0.13
2018-12-19T07:30:25.161Z,-0.06
2018-12-19T07:33:28.460Z,-0.05
2018-12-19T07:36:31.769Z,0.04
2018-12-19T07:39:35.153Z,0.09
2018-12-19T07:42:38.520Z,0.10
2018-12-19T07:45:41.844Z,0.22
2018-12-19T07:48:45.197Z,0.28
2018-12-19T07:51:48.526Z,0.35
2018-12-19T07:54:51.851Z,0.43
2018-12-19T07:57:55.192Z,0.48
2018-12-19T08:00:58.489Z,0.59
2018-12-19T08:04:02.528Z,0.68
2018-12-19T08:07:05.922Z,0.77
2018-12-19T08:10:09.333Z,0.92
2018-12-19T08:13:12.634Z,1.09
2018-12-19T08:16:16.018Z,1.19
2018-12-19T08:19:19.313Z,1.31
2018-12-19T08:22:22.629Z,1.44
2018-12-19T08:25:26.022Z,1.59
2018-12-19T08:28:29.346Z,1.70
2018-12-19T08:31:32.684Z,1.80
2018-12-19T08:34:36.017Z,1.97
2018-12-19T08:37:39.356Z,2.17
2018-12-19T08:40:42.653Z,2.37
2018-12-19T08:43:46.012Z,2.51
2018-12-19T08:46:49.410Z,2.63
2018-12-19T08:49:52.706Z,2.81
2018-12-19T08:52:56.118Z,2.94
2018-12-19T08:55:59.414Z,3.03
2018-12-19T08:59:02.716Z,3.10
2018-12-19T09:02:06.009Z,3.19
2018-12-19T09:05:09.405Z,3.21
2018-12-19T09:08:12.723Z,3.29
2018-12-19T09:11:16.082Z,3.38
2018-12-19T09:14:19.484Z,3.41
2018-12-19T09:17:22.825Z,3.45
2018-12-19T09:20:26.211Z,3.44
2018-12-19T09:23:29.600Z,3.47
2018-12-19T09:26:33.016Z,3.53
2018-12-19T09:29:36.521Z,3.52
2018-12-19T09:32:39.819Z,3.54
2018-12-19T09:35:43.112Z,3.51
2018-12-19T09:38:46.499Z,3.50
2018-12-19T09:41:49.816Z,3.52
2018-12-19T09:44:53.189Z,3.54
2018-12-19T09:47:56.503Z,3.52
2018-12-19T09:50:59.894Z,3.47
2018-12-19T09:54:03.289Z,3.60
2018-12-19T09:57:06.592Z,3.63
2018-12-19T10:03:33.037Z,3.62
2018-12-19T10:06:36.349Z,3.55
2018-12-19T10:09:39.640Z,3.68
2018-12-19T10:12:42.942Z,3.81
2018-12-19T10:15:46.301Z,3.95
2018-12-19T10:18:49.639Z,4.09
2018-12-19T10:21:52.942Z,4.25
2018-12-19T10:25:01.749Z,4.26
2018-12-19T10:28:05.267Z,4.34
2018-12-19T10:31:08.663Z,4.42
2018-12-19T10:34:12.010Z,4.37
2018-12-19T10:37:15.468Z,4.39
2018-12-19T10:40:18.843Z,4.46
2018-12-19T10:43:22.169Z,4.48
2018-12-19T10:46:25.564Z,4.53
2018-12-19T10:49:28.860Z,4.57
2018-12-19T10:52:32.164Z,4.69
2018-12-19T10:55:35.474Z,4.69
2018-12-19T10:58:38.878Z,4.71
2018-12-19T11:01:42.177Z,4.78
2018-12-19T11:04:45.656Z,4.85
2018-12-19T11:07:48.977Z,4.93
2018-12-19T11:10:52.344Z,4.97
2018-12-19T11:13:55.652Z,4.97
2018-12-19T11:16:59.202Z,4.97
2018-12-19T11:20:03.797Z,5.00
2018-12-19T11:23:07.178Z,4.99
2018-12-19T11:26:10.613Z,5.01
2018-12-19T11:29:13.929Z,4.98
2018-12-19T11:32:17.278Z,4.95
2018-12-19T11:35:20.605Z,4.97
2018-12-19T11:38:23.905Z,4.91
2018-12-19T11:41:27.196Z,4.74
2018-12-19T11:44:30.537Z,4.68
2018-12-19T11:47:33.978Z,4.61
2018-12-19T11:50:37.359Z,4.52
2018-12-19T11:53:40.773Z,4.46
2018-12-19T11:56:44.160Z,4.43
2018-12-19T11:59:47.572Z,4.50
2018-12-19T12:02:50.991Z,4.55
2018-12-19T12:05:54.376Z,4.59
2018-12-19T12:08:57.782Z,4.63
2018-12-19T12:12:01.177Z,4.71
2018-12-19T12:15:05.836Z,4.75
2018-12-19T12:18:09.366Z,4.82
2018-12-19T12:21:12.784Z,4.96
2018-12-19T12:24:16.442Z,5.12
2018-12-19T12:27:19.918Z,5.19
2018-12-19T12:30:24.221Z,5.14
2018-12-19T12:33:27.532Z,5.22
2018-12-19T12:36:30.928Z,5.25
2018-12-19T12:39:34.333Z,5.29
2018-12-19T12:42:37.951Z,5.38
2018-12-19T12:45:41.280Z,5.51
2018-12-19T12:48:44.624Z,5.76
2018-12-19T12:51:48.049Z,5.90
2018-12-19T12:54:51.429Z,5.96
2018-12-19T12:57:54.765Z,5.96
2018-12-19T13:00:58.132Z,5.96
2018-12-19T13:04:01.461Z,5.97
2018-12-19T13:07:04.825Z,5.91
2018-12-19T13:10:09.162Z,5.97
2018-12-19T13:13:12.554Z,5.90
2018-12-19T13:16:15.951Z,5.86
2018-12-19T13:19:19.251Z,5.75
2018-12-19T13:22:22.573Z,5.68
2018-12-19T13:25:25.959Z,5.55
2018-12-19T13:28:29.346Z,5.40
2018-12-19T13:31:32.642Z,5.29
2018-12-19T13:34:35.955Z,5.14
2018-12-19T13:37:39.259Z,5.02
2018-12-19T13:40:42.653Z,4.93
2018-12-19T13:43:46.003Z,4.90
2018-12-19T13:46:49.302Z,4.80
2018-12-19T13:49:52.714Z,4.74
2018-12-19T13:52:56.058Z,4.67
2018-12-19T13:55:59.381Z,4.63
2018-12-19T13:59:02.948Z,4.50
2018-12-19T14:02:06.345Z,4.39
2018-12-19T14:05:09.725Z,4.26
2018-12-19T14:08:13.021Z,4.18
2018-12-19T14:11:16.317Z,4.17
2018-12-19T14:14:19.612Z,4.09
2018-12-19T14:17:22.913Z,4.05
2018-12-19T14:20:26.211Z,4.00
2018-12-19T14:23:30.551Z,3.88
2018-12-19T14:26:33.928Z,3.79
2018-12-19T14:29:37.228Z,3.78
2018-12-19T14:32:40.658Z,3.72
2018-12-19T14:35:44.064Z,3.66
2018-12-19T14:38:47.381Z,3.66
2018-12-19T14:41:50.749Z,3.70
2018-12-19T14:44:54.190Z,3.70
2018-12-19T14:47:57.514Z,3.73
2018-12-19T14:51:00.878Z,3.75
2018-12-19T14:54:04.245Z,3.60
2018-12-19T14:57:07.554Z,3.62
2018-12-19T15:00:11.452Z,3.67
2018-12-19T15:03:14.855Z,3.63
2018-12-19T15:06:18.189Z,3.54
2018-12-19T15:09:21.540Z,3.46
2018-12-19T15:12:25.899Z,3.47
2018-12-19T15:15:29.520Z,3.42
2018-12-19T15:18:32.877Z,3.35
2018-12-19T15:21:36.212Z,3.34
2018-12-19T15:24:39.573Z,3.43
2018-12-19T15:27:42.864Z,3.66
2018-12-19T15:30:46.165Z,3.49
2018-12-19T15:33:49.508Z,3.32
2018-12-19T15:36:52.824Z,3.09
2018-12-19T15:39:56.204Z,3.07
2018-12-19T15:42:59.606Z,3.06
2018-12-19T15:46:02.916Z,3.07
2018-12-19T15:49:06.226Z,3.28
2018-12-19T15:52:09.540Z,3.16
2018-12-19T15:55:12.966Z,3.16
2018-12-19T15:58:16.355Z,3.20
2018-12-19T16:01:19.693Z,3.18
2018-12-19T16:04:22.989Z,3.18
2018-12-19T16:07:26.288Z,3.17
2018-12-19T16:10:29.582Z,3.07
2018-12-19T16:13:33.253Z,3.00
2018-12-19T16:16:36.632Z,2.99
2018-12-19T16:19:39.919Z,3.03
2018-12-19T16:22:43.252Z,3.00
2018-12-19T16:25:46.538Z,2.93
2018-12-19T16:28:49.844Z,2.97
2018-12-19T16:31:53.146Z,2.97
2018-12-19T16:34:56.471Z,2.87
2018-12-19T16:37:59.806Z,2.82
2018-12-19T16:41:03.140Z,2.78
2018-12-19T16:44:06.437Z,2.73
2018-12-19T16:47:09.833Z,2.69
2018-12-19T16:50:13.205Z,2.69
2018-12-19T16:53:16.500Z,2.66
2018-12-19T16:56:19.929Z,2.66
2018-12-19T16:59:23.333Z,2.70
2018-12-19T17:02:26.689Z,2.71
2018-12-19T17:05:30.038Z,2.69
2018-12-19T17:08:34.301Z,2.74
2018-12-19T17:11:37.644Z,2.76
2018-12-19T17:14:41.038Z,2.77
2018-12-19T17:17:44.333Z,2.75
2018-12-19T17:20:47.758Z,2.75
2018-12-19T17:23:51.145Z,2.77
2018-12-19T17:26:54.457Z,2.80
2018-12-19T17:29:57.849Z,2.74
2018-12-19T17:33:01.181Z,2.80
2018-12-19T17:36:05.349Z,2.85
2018-12-19T17:39:08.772Z,2.86
2018-12-19T17:42:12.152Z,2.89
2018-12-19T17:45:15.561Z,2.84
2018-12-19T17:48:18.889Z,2.82
2018-12-19T17:51:22.194Z,2.83
2018-12-19T17:54:25.530Z,2.78
2018-12-19T17:57:28.865Z,2.69
2018-12-19T18:00:32.247Z,2.65
2018-12-19T18:03:35.573Z,2.55
2018-12-19T18:06:38.872Z,2.45
2018-12-19T18:09:42.202Z,2.39
2018-12-19T18:12:45.650Z,2.34
2018-12-19T18:15:48.961Z,2.15
2018-12-19T18:18:52.332Z,2.17
2018-12-19T18:21:55.753Z,2.05
2018-12-19T18:24:59.072Z,1.98
2018-12-19T18:28:02.349Z,2.02
2018-12-19T18:31:05.749Z,1.92
2018-12-19T18:34:09.091Z,1.80
2018-12-19T18:37:12.414Z,1.69
2018-12-19T18:40:15.756Z,1.69
2018-12-19T18:43:19.077Z,1.60
2018-12-19T18:46:22.369Z,1.54
2018-12-19T18:49:25.750Z,1.50
2018-12-19T18:52:29.061Z,1.46
2018-12-19T18:55:32.426Z,1.37
2018-12-19T18:58:37.213Z,1.28
2018-12-19T19:01:40.669Z,1.32
2018-12-19T19:04:44.153Z,1.35
2018-12-19T19:07:47.574Z,1.45
2018-12-19T19:10:50.877Z,1.44
2018-12-19T19:13:54.174Z,1.41
2018-12-19T19:16:57.973Z,1.44
2018-12-19T19:20:01.274Z,1.37
2018-12-19T19:23:04.671Z,1.27
2018-12-19T19:26:08.102Z,1.09
2018-12-19T19:29:11.507Z,1.11
2018-12-19T19:32:14.822Z,1.05
2018-12-19T19:35:18.162Z,1.05
2018-12-19T19:38:21.470Z,0.97
2018-12-19T19:41:24.869Z,1.06
2018-12-19T19:44:28.150Z,1.16
2018-12-19T19:47:31.460Z,1.07
2018-12-19T19:50:34.866Z,1.15
2018-12-19T19:53:38.180Z,1.23
2018-12-19T19:56:41.465Z,1.19
2018-12-19T19:59:44.753Z,1.23
2018-12-19T20:02:48.059Z,1.32
2018-12-19T20:05:51.458Z,1.46
2018-12-19T20:08:57.127Z,1.47
2018-12-19T20:12:00.437Z,1.47
2018-12-19T20:15:04.518Z,1.42
2018-12-19T20:18:08.368Z,1.62
2018-12-19T20:21:11.661Z,1.75
2018-12-19T20:24:14.946Z,1.52
2018-12-19T20:27:18.374Z,1.43
2018-12-19T20:30:21.662Z,1.36
2018-12-19T20:33:26.189Z,1.30
2018-12-19T20:36:29.756Z,1.16
2018-12-19T20:39:33.050Z,1.19
2018-12-19T20:42:36.373Z,1.25
2018-12-19T20:45:39.749Z,1.33
2018-12-19T20:48:43.153Z,1.42
2018-12-19T20:51:47.053Z,1.48
2018-12-19T20:54:50.325Z,1.70
2018-12-19T20:57:53.653Z,1.72
2018-12-19T21:00:57.041Z,1.83
2018-12-19T21:04:00.458Z,1.94
2018-12-19T21:07:03.856Z,1.93
2018-12-19T21:10:08.157Z,1.68
2018-12-19T21:13:11.457Z,1.54
2018-12-19T21:16:14.804Z,1.48
2018-12-19T21:19:18.172Z,1.71
2018-12-19T21:22:21.481Z,1.99
2018-12-19T21:25:24.987Z,2.15
2018-12-19T21:28:28.375Z,2.12
2018-12-19T21:31:31.737Z,2.09
2018-12-19T21:34:35.104Z,2.10
2018-12-19T21:37:38.478Z,2.12
2018-12-19T21:40:41.928Z,2.03
2018-12-19T21:43:45.279Z,1.98
2018-12-19T21:46:48.793Z,2.37
2018-12-19T21:49:52.236Z,2.23
2018-12-19T21:52:55.721Z,1.83
2018-12-19T21:55:59.070Z,1.60
2018-12-19T21:59:02.471Z,1.92
2018-12-19T22:02:06.091Z,2.01
2018-12-19T22:05:09.427Z,1.74
2018-12-19T22:08:12.876Z,1.59
2018-12-19T22:11:16.347Z,1.57
2018-12-19T22:14:19.746Z,1.80
2018-12-19T22:17:28.656Z,2.08
2018-12-19T22:20:32.101Z,2.09
2018-12-19T22:23:35.586Z,1.98
2018-12-19T22:26:39.021Z,1.75
2018-12-19T22:29:42.600Z,1.79
2018-12-19T22:32:45.959Z,1.83
2018-12-19T22:35:49.322Z,1.74
2018-12-19T22:38:52.625Z,1.73
2018-12-19T22:41:55.921Z,1.80
2018-12-19T22:44:59.226Z,1.85
2018-12-19T22:48:02.638Z,1.91
2018-12-19T22:51:06.192Z,2.15
2018-12-19T22:54:09.619Z,2.29
2018-12-19T22:57:13.028Z,2.28
2018-12-19T23:00:17.152Z,2.22
2018-12-19T23:06:45.492Z,1.72
2018-12-19T23:09:48.951Z,1.34
2018-12-19T23:12:52.530Z,1.01
2018-12-19T23:15:55.968Z,0.83
2018-12-19T23:18:59.696Z,0.76
2018-12-19T23:22:03.205Z,0.71
2018-12-19T23:25:07.328Z,0.85
2018-12-19T23:28:10.864Z,0.70
2018-12-19T23:31:14.462Z,0.59
2018-12-19T23:34:17.821Z,0.56
2018-12-19T23:37:21.127Z,0.73
2018-12-19T23:40:24.658Z,0.73
2018-12-19T23:43:28.057Z,0.62
2018-12-19T23:46:33.357Z,0.69
2018-12-19T23:49:36.816Z,0.69
2018-12-19T23:52:40.394Z,0.67
2018-12-19T23:55:43.950Z,0.72
2018-12-19T23:58:47.321Z,0.75
